sensor_id;sensor_type;location;lat;lon;timestamp;pressure;altitude;pressure_sealevel;temperature;humidity
28448;BME280;15675;52.870;-1.416;2023-08-12T00:00:09;100785.31;;;20.27;65.28
28448;BME280;15675;52.870;-1.416;2023-08-12T00:02:42;100796.13;;;19.94;68.83
28448;BME280;15675;52.870;-1.416;2023-08-12T00:05:09;100790.78;;;19.69;71.31
28448;BME280;15675;52.870;-1.416;2023-08-12T00:07:38;100798.59;;;19.72;71.36
28448;BME280;15675;52.870;-1.416;2023-08-12T00:10:04;100803.13;;;19.12;74.19
28448;BME280;15675;52.870;-1.416;2023-08-12T00:12:36;100799.25;;;18.64;78.75
28448;BME280;15675;52.870;-1.416;2023-08-12T00:15:03;100791.00;;;18.76;80.81
28448;BME280;15675;52.870;-1.416;2023-08-12T00:17:29;100786.50;;;19.40;79.40
28448;BME280;15675;52.870;-1.416;2023-08-12T00:19:55;100784.16;;;19.57;77.50
28448;BME280;15675;52.870;-1.416;2023-08-12T00:22:21;100787.25;;;19.43;76.71
28448;BME280;15675;52.870;-1.416;2023-08-12T00:24:47;100785.75;;;19.06;78.98
28448;BME280;15675;52.870;-1.416;2023-08-12T00:27:13;100771.00;;;19.30;78.71
28448;BME280;15675;52.870;-1.416;2023-08-12T00:29:38;100773.47;;;19.35;78.05
28448;BME280;15675;52.870;-1.416;2023-08-12T00:32:04;100764.34;;;19.19;80.81
28448;BME280;15675;52.870;-1.416;2023-08-12T00:34:30;100767.66;;;19.25;80.47
28448;BME280;15675;52.870;-1.416;2023-08-12T00:36:56;100765.78;;;19.01;81.09
28448;BME280;15675;52.870;-1.416;2023-08-12T00:39:21;100764.00;;;18.71;83.34
28448;BME280;15675;52.870;-1.416;2023-08-12T00:41:47;100752.34;;;18.50;85.94
28448;BME280;15675;52.870;-1.416;2023-08-12T00:44:12;100761.06;;;18.51;88.39
28448;BME280;15675;52.870;-1.416;2023-08-12T00:46:40;100769.28;;;18.40;89.34
28448;BME280;15675;52.870;-1.416;2023-08-12T00:49:06;100757.38;;;18.58;88.38
28448;BME280;15675;52.870;-1.416;2023-08-12T00:51:32;100754.66;;;18.29;89.65
28448;BME280;15675;52.870;-1.416;2023-08-12T00:53:58;100748.78;;;18.51;89.63
28448;BME280;15675;52.870;-1.416;2023-08-12T00:56:25;100748.78;;;18.51;89.71
28448;BME280;15675;52.870;-1.416;2023-08-12T00:58:52;100753.25;;;18.79;89.13
28448;BME280;15675;52.870;-1.416;2023-08-12T01:01:18;100756.56;;;19.16;85.29
28448;BME280;15675;52.870;-1.416;2023-08-12T01:03:45;100754.91;;;19.40;81.85
28448;BME280;15675;52.870;-1.416;2023-08-12T01:06:10;100755.97;;;19.06;79.61
28448;BME280;15675;52.870;-1.416;2023-08-12T01:08:36;100761.06;;;18.19;85.24
28448;BME280;15675;52.870;-1.416;2023-08-12T01:11:25;100765.09;;;17.64;94.59
28448;BME280;15675;52.870;-1.416;2023-08-12T01:17:02;100754.56;;;18.64;97.22
28448;BME280;15675;52.870;-1.416;2023-08-12T01:19:29;100755.03;;;19.08;92.79
28448;BME280;15675;52.870;-1.416;2023-08-12T01:22:00;100752.31;;;18.82;89.20
28448;BME280;15675;52.870;-1.416;2023-08-12T01:24:26;100757.19;;;18.33;88.86
28448;BME280;15675;52.870;-1.416;2023-08-12T01:26:52;100755.13;;;18.44;90.59
28448;BME280;15675;52.870;-1.416;2023-08-12T01:29:18;100748.22;;;18.41;91.46
28448;BME280;15675;52.870;-1.416;2023-08-12T01:31:49;100749.31;;;18.33;91.93
28448;BME280;15675;52.870;-1.416;2023-08-12T01:34:43;100742.03;;;18.11;94.51
28448;BME280;15675;52.870;-1.416;2023-08-12T01:37:14;100746.47;;;18.09;95.68
28448;BME280;15675;52.870;-1.416;2023-08-12T01:39:43;100739.31;;;18.77;94.55
28448;BME280;15675;52.870;-1.416;2023-08-12T01:42:11;100736.91;;;18.99;88.86
28448;BME280;15675;52.870;-1.416;2023-08-12T01:44:37;100729.09;;;18.96;85.89
28448;BME280;15675;52.870;-1.416;2023-08-12T01:47:03;100733.50;;;18.95;85.72
28448;BME280;15675;52.870;-1.416;2023-08-12T01:49:28;100735.84;;;18.45;87.74
28448;BME280;15675;52.870;-1.416;2023-08-12T01:51:54;100724.56;;;18.41;90.19
28448;BME280;15675;52.870;-1.416;2023-08-12T01:54:19;100718.69;;;18.93;88.23
28448;BME280;15675;52.870;-1.416;2023-08-12T01:56:45;100716.97;;;18.92;87.07
28448;BME280;15675;52.870;-1.416;2023-08-12T01:59:11;100717.22;;;19.11;85.65
28448;BME280;15675;52.870;-1.416;2023-08-12T02:01:36;100711.09;;;19.39;84.03
28448;BME280;15675;52.870;-1.416;2023-08-12T02:04:02;100710.31;;;19.35;82.26
28448;BME280;15675;52.870;-1.416;2023-08-12T02:06:27;100713.81;;;19.36;81.72
28448;BME280;15675;52.870;-1.416;2023-08-12T02:08:53;100705.44;;;18.96;81.57
28448;BME280;15675;52.870;-1.416;2023-08-12T02:11:18;100705.59;;;18.91;83.10
28448;BME280;15675;52.870;-1.416;2023-08-12T02:13:44;100697.56;;;18.96;83.20
28448;BME280;15675;52.870;-1.416;2023-08-12T02:16:09;100692.13;;;19.01;82.89
28448;BME280;15675;52.870;-1.416;2023-08-12T02:18:34;100692.50;;;19.17;82.31
28448;BME280;15675;52.870;-1.416;2023-08-12T02:21:01;100686.91;;;19.27;81.36
28448;BME280;15675;52.870;-1.416;2023-08-12T02:23:27;100683.28;;;19.57;80.05
28448;BME280;15675;52.870;-1.416;2023-08-12T02:25:52;100691.56;;;19.71;78.80
28448;BME280;15675;52.870;-1.416;2023-08-12T02:28:19;100685.88;;;19.58;77.78
28448;BME280;15675;52.870;-1.416;2023-08-12T02:30:45;100682.47;;;19.28;77.66
28448;BME280;15675;52.870;-1.416;2023-08-12T02:33:10;100673.22;;;19.43;77.42
28448;BME280;15675;52.870;-1.416;2023-08-12T02:35:36;100670.53;;;19.44;76.29
28448;BME280;15675;52.870;-1.416;2023-08-12T02:38:01;100673.28;;;19.41;74.85
28448;BME280;15675;52.870;-1.416;2023-08-12T02:40:27;100665.56;;;19.35;74.16
28448;BME280;15675;52.870;-1.416;2023-08-12T02:42:53;100667.53;;;19.30;73.80
28448;BME280;15675;52.870;-1.416;2023-08-12T02:45:18;100675.72;;;19.21;74.72
28448;BME280;15675;52.870;-1.416;2023-08-12T02:47:44;100671.66;;;19.10;76.78
28448;BME280;15675;52.870;-1.416;2023-08-12T02:50:09;100670.72;;;19.13;78.88
28448;BME280;15675;52.870;-1.416;2023-08-12T02:52:35;100671.06;;;19.29;79.74
28448;BME280;15675;52.870;-1.416;2023-08-12T02:55:00;100666.09;;;18.63;83.66
28448;BME280;15675;52.870;-1.416;2023-08-12T02:57:26;100666.63;;;18.46;91.32
28448;BME280;15675;52.870;-1.416;2023-08-12T02:59:51;100663.75;;;18.54;95.64
28448;BME280;15675;52.870;-1.416;2023-08-12T03:02:17;100655.44;;;18.68;97.71
28448;BME280;15675;52.870;-1.416;2023-08-12T03:04:43;100651.56;;;18.51;100.00
28448;BME280;15675;52.870;-1.416;2023-08-12T03:07:08;100650.59;;;18.54;100.00
28448;BME280;15675;52.870;-1.416;2023-08-12T03:09:35;100658.09;;;18.08;100.00
28448;BME280;15675;52.870;-1.416;2023-08-12T03:12:00;100649.31;;;18.09;100.00
28448;BME280;15675;52.870;-1.416;2023-08-12T03:14:28;100641.97;;;18.50;100.00
28448;BME280;15675;52.870;-1.416;2023-08-12T03:16:54;100639.19;;;18.55;100.00
28448;BME280;15675;52.870;-1.416;2023-08-12T03:19:20;100627.97;;;18.78;100.00
28448;BME280;15675;52.870;-1.416;2023-08-12T03:21:45;100631.81;;;18.38;100.00
28448;BME280;15675;52.870;-1.416;2023-08-12T03:24:11;100629.97;;;17.80;100.00
28448;BME280;15675;52.870;-1.416;2023-08-12T03:26:36;100631.06;;;17.38;100.00
28448;BME280;15675;52.870;-1.416;2023-08-12T03:29:02;100633.97;;;17.60;100.00
28448;BME280;15675;52.870;-1.416;2023-08-12T03:31:28;100630.94;;;18.09;100.00
28448;BME280;15675;52.870;-1.416;2023-08-12T03:33:53;100624.44;;;17.89;100.00
28448;BME280;15675;52.870;-1.416;2023-08-12T03:36:18;100622.59;;;17.62;100.00
28448;BME280;15675;52.870;-1.416;2023-08-12T03:38:44;100619.94;;;17.63;100.00
28448;BME280;15675;52.870;-1.416;2023-08-12T03:41:09;100614.06;;;17.53;100.00
28448;BME280;15675;52.870;-1.416;2023-08-12T03:43:35;100621.75;;;17.59;100.00
28448;BME280;15675;52.870;-1.416;2023-08-12T03:46:01;100620.84;;;17.28;100.00
28448;BME280;15675;52.870;-1.416;2023-08-12T03:48:27;100622.16;;;17.44;100.00
28448;BME280;15675;52.870;-1.416;2023-08-12T03:50:52;100617.81;;;17.76;100.00
28448;BME280;15675;52.870;-1.416;2023-08-12T03:53:18;100611.16;;;17.63;100.00
28448;BME280;15675;52.870;-1.416;2023-08-12T03:55:43;100611.34;;;17.56;100.00
28448;BME280;15675;52.870;-1.416;2023-08-12T03:58:09;100621.13;;;17.50;100.00
28448;BME280;15675;52.870;-1.416;2023-08-12T04:00:34;100626.47;;;17.47;100.00
28448;BME280;15675;52.870;-1.416;2023-08-12T04:03:00;100628.81;;;17.57;100.00
28448;BME280;15675;52.870;-1.416;2023-08-12T04:05:26;100630.06;;;17.75;100.00
28448;BME280;15675;52.870;-1.416;2023-08-12T04:07:52;100629.75;;;18.19;100.00
28448;BME280;15675;52.870;-1.416;2023-08-12T04:10:17;100626.38;;;18.16;100.00
28448;BME280;15675;52.870;-1.416;2023-08-12T04:12:43;100618.50;;;17.83;100.00
28448;BME280;15675;52.870;-1.416;2023-08-12T04:15:09;100620.03;;;18.23;100.00
28448;BME280;15675;52.870;-1.416;2023-08-12T04:17:35;100622.75;;;18.48;100.00
28448;BME280;15675;52.870;-1.416;2023-08-12T04:20:00;100615.63;;;18.23;100.00
28448;BME280;15675;52.870;-1.416;2023-08-12T04:22:26;100619.59;;;18.37;100.00
28448;BME280;15675;52.870;-1.416;2023-08-12T04:24:53;100620.63;;;18.31;100.00
28448;BME280;15675;52.870;-1.416;2023-08-12T04:27:18;100618.84;;;18.03;100.00
28448;BME280;15675;52.870;-1.416;2023-08-12T04:29:45;100629.44;;;18.00;100.00
28448;BME280;15675;52.870;-1.416;2023-08-12T04:32:11;100622.16;;;18.10;100.00
28448;BME280;15675;52.870;-1.416;2023-08-12T04:34:36;100608.69;;;18.21;100.00
28448;BME280;15675;52.870;-1.416;2023-08-12T04:37:02;100620.41;;;17.77;100.00
28448;BME280;15675;52.870;-1.416;2023-08-12T04:39:27;100611.22;;;17.61;100.00
28448;BME280;15675;52.870;-1.416;2023-08-12T04:41:53;100608.34;;;17.70;100.00
28448;BME280;15675;52.870;-1.416;2023-08-12T04:44:19;100606.47;;;17.42;100.00
28448;BME280;15675;52.870;-1.416;2023-08-12T04:46:44;100611.03;;;17.36;100.00
28448;BME280;15675;52.870;-1.416;2023-08-12T04:49:10;100609.66;;;17.21;100.00
28448;BME280;15675;52.870;-1.416;2023-08-12T04:51:35;100607.88;;;17.21;100.00
28448;BME280;15675;52.870;-1.416;2023-08-12T04:54:01;100612.63;;;17.41;100.00
28448;BME280;15675;52.870;-1.416;2023-08-12T04:56:27;100609.56;;;17.57;100.00
28448;BME280;15675;52.870;-1.416;2023-08-12T04:58:54;100608.50;;;17.64;100.00
28448;BME280;15675;52.870;-1.416;2023-08-12T05:01:20;100605.25;;;17.87;100.00
28448;BME280;15675;52.870;-1.416;2023-08-12T05:03:45;100607.69;;;17.62;100.00
28448;BME280;15675;52.870;-1.416;2023-08-12T05:06:11;100609.28;;;17.68;100.00
28448;BME280;15675;52.870;-1.416;2023-08-12T05:08:37;100612.53;;;17.45;100.00
28448;BME280;15675;52.870;-1.416;2023-08-12T05:11:02;100613.38;;;17.78;100.00
28448;BME280;15675;52.870;-1.416;2023-08-12T05:13:28;100608.88;;;17.83;100.00
28448;BME280;15675;52.870;-1.416;2023-08-12T05:15:54;100604.28;;;17.90;100.00
28448;BME280;15675;52.870;-1.416;2023-08-12T05:18:22;100610.09;;;17.70;100.00
28448;BME280;15675;52.870;-1.416;2023-08-12T05:20:52;100603.88;;;17.74;100.00
28448;BME280;15675;52.870;-1.416;2023-08-12T05:23:19;100607.16;;;17.49;100.00
28448;BME280;15675;52.870;-1.416;2023-08-12T05:25:45;100607.13;;;17.51;100.00
28448;BME280;15675;52.870;-1.416;2023-08-12T05:28:10;100605.13;;;17.60;100.00
28448;BME280;15675;52.870;-1.416;2023-08-12T05:30:36;100595.34;;;17.66;100.00
28448;BME280;15675;52.870;-1.416;2023-08-12T05:33:03;100595.22;;;17.70;100.00
28448;BME280;15675;52.870;-1.416;2023-08-12T05:35:28;100601.78;;;17.54;100.00
28448;BME280;15675;52.870;-1.416;2023-08-12T05:37:58;100599.91;;;17.26;100.00
28448;BME280;15675;52.870;-1.416;2023-08-12T05:40:23;100602.44;;;17.29;100.00
28448;BME280;15675;52.870;-1.416;2023-08-12T05:42:49;100605.97;;;17.28;100.00
28448;BME280;15675;52.870;-1.416;2023-08-12T05:45:14;100608.09;;;17.14;100.00
28448;BME280;15675;52.870;-1.416;2023-08-12T05:47:40;100592.28;;;17.17;100.00
28448;BME280;15675;52.870;-1.416;2023-08-12T05:50:06;100593.75;;;17.27;100.00
28448;BME280;15675;52.870;-1.416;2023-08-12T05:52:32;100597.09;;;16.99;100.00
28448;BME280;15675;52.870;-1.416;2023-08-12T05:54:58;100599.53;;;17.40;100.00
28448;BME280;15675;52.870;-1.416;2023-08-12T05:57:23;100592.13;;;17.21;100.00
28448;BME280;15675;52.870;-1.416;2023-08-12T05:59:49;100594.63;;;17.28;100.00
28448;BME280;15675;52.870;-1.416;2023-08-12T06:02:15;100587.97;;;17.14;100.00
28448;BME280;15675;52.870;-1.416;2023-08-12T06:04:40;100593.16;;;17.50;100.00
28448;BME280;15675;52.870;-1.416;2023-08-12T06:07:06;100580.97;;;17.48;100.00
28448;BME280;15675;52.870;-1.416;2023-08-12T06:09:31;100588.81;;;17.49;100.00
28448;BME280;15675;52.870;-1.416;2023-08-12T06:11:57;100580.56;;;17.30;100.00
28448;BME280;15675;52.870;-1.416;2023-08-12T06:14:22;100573.34;;;17.38;100.00
28448;BME280;15675;52.870;-1.416;2023-08-12T06:16:48;100580.09;;;17.49;100.00
28448;BME280;15675;52.870;-1.416;2023-08-12T06:19:13;100581.09;;;17.43;100.00
28448;BME280;15675;52.870;-1.416;2023-08-12T06:21:39;100583.78;;;17.41;100.00
28448;BME280;15675;52.870;-1.416;2023-08-12T06:24:04;100578.22;;;17.52;100.00
28448;BME280;15675;52.870;-1.416;2023-08-12T06:26:30;100564.97;;;17.57;100.00
28448;BME280;15675;52.870;-1.416;2023-08-12T06:28:56;100567.50;;;17.62;100.00
28448;BME280;15675;52.870;-1.416;2023-08-12T06:31:21;100572.22;;;17.80;100.00
28448;BME280;15675;52.870;-1.416;2023-08-12T06:33:47;100558.38;;;17.42;100.00
28448;BME280;15675;52.870;-1.416;2023-08-12T06:36:12;100564.25;;;17.52;100.00
28448;BME280;15675;52.870;-1.416;2023-08-12T06:38:38;100573.53;;;17.64;100.00
28448;BME280;15675;52.870;-1.416;2023-08-12T06:41:04;100570.72;;;17.70;100.00
28448;BME280;15675;52.870;-1.416;2023-08-12T06:43:29;100576.06;;;17.67;100.00
28448;BME280;15675;52.870;-1.416;2023-08-12T06:45:55;100563.84;;;17.66;100.00
28448;BME280;15675;52.870;-1.416;2023-08-12T06:48:20;100566.69;;;17.89;100.00
28448;BME280;15675;52.870;-1.416;2023-08-12T06:50:46;100562.91;;;17.68;100.00
28448;BME280;15675;52.870;-1.416;2023-08-12T06:53:11;100570.44;;;18.12;100.00
28448;BME280;15675;52.870;-1.416;2023-08-12T06:55:43;100569.78;;;18.34;100.00
28448;BME280;15675;52.870;-1.416;2023-08-12T06:58:09;100567.19;;;18.32;100.00
28448;BME280;15675;52.870;-1.416;2023-08-12T07:00:34;100566.38;;;18.58;100.00
28448;BME280;15675;52.870;-1.416;2023-08-12T07:03:00;100566.28;;;18.05;100.00
28448;BME280;15675;52.870;-1.416;2023-08-12T07:05:26;100569.59;;;18.40;100.00
28448;BME280;15675;52.870;-1.416;2023-08-12T07:07:51;100567.09;;;18.35;100.00
28448;BME280;15675;52.870;-1.416;2023-08-12T07:10:17;100561.25;;;18.25;100.00
28448;BME280;15675;52.870;-1.416;2023-08-12T07:12:42;100553.56;;;18.19;100.00
28448;BME280;15675;52.870;-1.416;2023-08-12T07:15:08;100563.97;;;18.22;100.00
28448;BME280;15675;52.870;-1.416;2023-08-12T07:17:35;100562.84;;;18.31;100.00
28448;BME280;15675;52.870;-1.416;2023-08-12T07:20:01;100560.66;;;18.17;100.00
28448;BME280;15675;52.870;-1.416;2023-08-12T07:22:27;100564.38;;;18.10;100.00
28448;BME280;15675;52.870;-1.416;2023-08-12T07:24:53;100564.38;;;18.38;100.00
28448;BME280;15675;52.870;-1.416;2023-08-12T07:27:19;100551.00;;;18.18;100.00
28448;BME280;15675;52.870;-1.416;2023-08-12T07:29:45;100552.44;;;18.28;100.00
28448;BME280;15675;52.870;-1.416;2023-08-12T07:32:10;100552.34;;;18.01;100.00
28448;BME280;15675;52.870;-1.416;2023-08-12T07:34:37;100563.97;;;18.22;100.00
28448;BME280;15675;52.870;-1.416;2023-08-12T07:37:03;100550.38;;;18.09;100.00
28448;BME280;15675;52.870;-1.416;2023-08-12T07:39:28;100546.84;;;18.10;100.00
28448;BME280;15675;52.870;-1.416;2023-08-12T07:41:54;100554.31;;;18.51;100.00
28448;BME280;15675;52.870;-1.416;2023-08-12T07:44:19;100557.00;;;18.50;100.00
28448;BME280;15675;52.870;-1.416;2023-08-12T07:46:45;100551.78;;;18.76;100.00
28448;BME280;15675;52.870;-1.416;2023-08-12T07:49:11;100546.47;;;18.78;100.00
28448;BME280;15675;52.870;-1.416;2023-08-12T07:51:36;100546.66;;;18.72;100.00
28448;BME280;15675;52.870;-1.416;2023-08-12T07:54:02;100550.53;;;18.88;100.00
28448;BME280;15675;52.870;-1.416;2023-08-12T07:56:27;100544.31;;;18.91;100.00
28448;BME280;15675;52.870;-1.416;2023-08-12T07:58:53;100547.50;;;19.26;100.00
28448;BME280;15675;52.870;-1.416;2023-08-12T08:01:18;100533.22;;;19.58;100.00
28448;BME280;15675;52.870;-1.416;2023-08-12T08:03:44;100523.22;;;19.66;100.00
28448;BME280;15675;52.870;-1.416;2023-08-12T08:06:09;100535.50;;;19.42;100.00
28448;BME280;15675;52.870;-1.416;2023-08-12T08:08:35;100526.56;;;19.23;100.00
28448;BME280;15675;52.870;-1.416;2023-08-12T08:11:00;100530.59;;;19.82;100.00
28448;BME280;15675;52.870;-1.416;2023-08-12T08:13:26;100527.75;;;19.63;100.00
28448;BME280;15675;52.870;-1.416;2023-08-12T08:15:51;100529.41;;;19.42;100.00
28448;BME280;15675;52.870;-1.416;2023-08-12T08:18:17;100532.00;;;19.67;100.00
28448;BME280;15675;52.870;-1.416;2023-08-12T08:20:43;100522.69;;;19.82;100.00
28448;BME280;15675;52.870;-1.416;2023-08-12T08:23:08;100530.03;;;19.72;100.00
28448;BME280;15675;52.870;-1.416;2023-08-12T08:25:34;100531.94;;;19.69;100.00
28448;BME280;15675;52.870;-1.416;2023-08-12T08:27:59;100531.66;;;19.76;100.00
28448;BME280;15675;52.870;-1.416;2023-08-12T08:30:25;100534.53;;;19.70;100.00
28448;BME280;15675;52.870;-1.416;2023-08-12T08:32:51;100536.19;;;19.96;100.00
28448;BME280;15675;52.870;-1.416;2023-08-12T08:35:16;100533.72;;;19.92;100.00
28448;BME280;15675;52.870;-1.416;2023-08-12T08:37:42;100536.09;;;19.99;100.00
28448;BME280;15675;52.870;-1.416;2023-08-12T08:40:08;100524.63;;;20.45;100.00
28448;BME280;15675;52.870;-1.416;2023-08-12T08:42:34;100520.59;;;20.36;100.00
28448;BME280;15675;52.870;-1.416;2023-08-12T08:45:01;100523.97;;;19.95;100.00
28448;BME280;15675;52.870;-1.416;2023-08-12T08:47:29;100518.31;;;19.82;100.00
28448;BME280;15675;52.870;-1.416;2023-08-12T08:49:55;100515.81;;;20.02;100.00
28448;BME280;15675;52.870;-1.416;2023-08-12T08:52:23;100524.53;;;20.48;100.00
28448;BME280;15675;52.870;-1.416;2023-08-12T08:54:50;100519.38;;;20.88;100.00
28448;BME280;15675;52.870;-1.416;2023-08-12T08:57:16;100516.44;;;20.95;99.00
28448;BME280;15675;52.870;-1.416;2023-08-12T08:59:42;100508.84;;;20.67;96.93
28448;BME280;15675;52.870;-1.416;2023-08-12T09:02:15;100514.72;;;20.51;95.54
28448;BME280;15675;52.870;-1.416;2023-08-12T09:04:42;100519.97;;;20.51;95.94
28448;BME280;15675;52.870;-1.416;2023-08-12T09:07:08;100511.44;;;20.45;96.96
28448;BME280;15675;52.870;-1.416;2023-08-12T09:09:35;100518.34;;;20.92;96.71
28448;BME280;15675;52.870;-1.416;2023-08-12T09:12:01;100521.25;;;20.85;95.89
28448;BME280;15675;52.870;-1.416;2023-08-12T09:14:28;100511.63;;;20.62;94.84
28448;BME280;15675;52.870;-1.416;2023-08-12T09:16:55;100515.19;;;20.61;95.49
28448;BME280;15675;52.870;-1.416;2023-08-12T09:19:21;100505.31;;;21.09;94.16
28448;BME280;15675;52.870;-1.416;2023-08-12T09:21:56;100499.38;;;20.61;89.26
28448;BME280;15675;52.870;-1.416;2023-08-12T09:24:25;100500.91;;;21.29;90.35
28448;BME280;15675;52.870;-1.416;2023-08-12T09:26:54;100501.66;;;20.91;88.77
28448;BME280;15675;52.870;-1.416;2023-08-12T09:29:24;100490.00;;;20.54;90.30
28448;BME280;15675;52.870;-1.416;2023-08-12T09:31:54;100498.84;;;21.16;90.07
28448;BME280;15675;52.870;-1.416;2023-08-12T09:34:19;100497.75;;;21.20;87.42
28448;BME280;15675;52.870;-1.416;2023-08-12T09:36:46;100495.66;;;20.88;90.07
28448;BME280;15675;52.870;-1.416;2023-08-12T09:39:12;100496.72;;;20.61;91.19
28448;BME280;15675;52.870;-1.416;2023-08-12T09:41:38;100494.69;;;20.25;95.68
28448;BME280;15675;52.870;-1.416;2023-08-12T09:44:08;100495.44;;;20.72;96.21
28448;BME280;15675;52.870;-1.416;2023-08-12T09:46:33;100478.97;;;20.66;94.75
28448;BME280;15675;52.870;-1.416;2023-08-12T09:48:59;100497.09;;;20.95;93.62
28448;BME280;15675;52.870;-1.416;2023-08-12T09:51:25;100495.81;;;20.62;93.78
28448;BME280;15675;52.870;-1.416;2023-08-12T09:53:51;100500.16;;;20.85;93.16
28448;BME280;15675;52.870;-1.416;2023-08-12T09:56:22;100497.00;;;20.98;93.43
28448;BME280;15675;52.870;-1.416;2023-08-12T09:58:48;100502.69;;;21.08;92.75
28448;BME280;15675;52.870;-1.416;2023-08-12T10:01:18;100502.78;;;20.63;94.32
28448;BME280;15675;52.870;-1.416;2023-08-12T10:03:48;100499.75;;;20.74;95.79
28448;BME280;15675;52.870;-1.416;2023-08-12T10:06:15;100494.13;;;20.82;95.34
28448;BME280;15675;52.870;-1.416;2023-08-12T10:08:40;100497.09;;;21.15;94.73
28448;BME280;15675;52.870;-1.416;2023-08-12T10:11:07;100501.59;;;21.13;91.29
28448;BME280;15675;52.870;-1.416;2023-08-12T10:13:34;100501.19;;;20.81;89.39
28448;BME280;15675;52.870;-1.416;2023-08-12T10:16:00;100505.56;;;20.82;90.67
28448;BME280;15675;52.870;-1.416;2023-08-12T10:18:27;100510.06;;;21.01;91.17
28448;BME280;15675;52.870;-1.416;2023-08-12T10:20:54;100500.22;;;20.84;89.98
28448;BME280;15675;52.870;-1.416;2023-08-12T10:23:24;100499.81;;;20.73;91.15
28448;BME280;15675;52.870;-1.416;2023-08-12T10:25:53;100489.34;;;20.71;91.59
28448;BME280;15675;52.870;-1.416;2023-08-12T10:28:19;100493.66;;;21.34;91.61
28448;BME280;15675;52.870;-1.416;2023-08-12T10:30:45;100485.19;;;21.07;90.54
28448;BME280;15675;52.870;-1.416;2023-08-12T10:33:10;100485.16;;;21.27;90.76
28448;BME280;15675;52.870;-1.416;2023-08-12T10:38:08;100473.06;;;21.99;88.72
28448;BME280;15675;52.870;-1.416;2023-08-12T10:40:34;100470.63;;;22.14;86.00
28448;BME280;15675;52.870;-1.416;2023-08-12T10:42:59;100461.69;;;22.16;84.78
28448;BME280;15675;52.870;-1.416;2023-08-12T10:45:41;100455.19;;;21.68;85.14
28448;BME280;15675;52.870;-1.416;2023-08-12T10:50:34;100471.84;;;22.06;82.34
28448;BME280;15675;52.870;-1.416;2023-08-12T10:53:20;100472.44;;;21.56;84.85
28448;BME280;15675;52.870;-1.416;2023-08-12T10:55:48;100465.00;;;21.06;84.29
28448;BME280;15675;52.870;-1.416;2023-08-12T10:58:27;100482.78;;;21.21;85.16
28448;BME280;15675;52.870;-1.416;2023-08-12T11:00:54;100477.66;;;21.18;86.55
28448;BME280;15675;52.870;-1.416;2023-08-12T11:03:21;100476.53;;;21.24;86.09
28448;BME280;15675;52.870;-1.416;2023-08-12T11:05:46;100468.25;;;21.31;86.75
28448;BME280;15675;52.870;-1.416;2023-08-12T11:08:13;100472.03;;;21.26;85.87
28448;BME280;15675;52.870;-1.416;2023-08-12T11:10:39;100472.72;;;21.88;85.54
28448;BME280;15675;52.870;-1.416;2023-08-12T11:13:05;100461.59;;;21.81;83.08
28448;BME280;15675;52.870;-1.416;2023-08-12T11:15:40;100460.66;;;21.82;82.49
28448;BME280;15675;52.870;-1.416;2023-08-12T11:18:12;100455.59;;;21.97;82.07
28448;BME280;15675;52.870;-1.416;2023-08-12T11:20:38;100457.56;;;22.11;81.63
28448;BME280;15675;52.870;-1.416;2023-08-12T11:23:05;100444.78;;;21.65;81.32
28448;BME280;15675;52.870;-1.416;2023-08-12T11:25:32;100456.91;;;22.05;82.65
28448;BME280;15675;52.870;-1.416;2023-08-12T11:27:58;100466.75;;;22.21;83.90
28448;BME280;15675;52.870;-1.416;2023-08-12T11:30:24;100451.47;;;22.28;81.32
28448;BME280;15675;52.870;-1.416;2023-08-12T11:32:52;100446.09;;;22.29;78.94
28448;BME280;15675;52.870;-1.416;2023-08-12T11:35:20;100442.13;;;22.20;79.11
28448;BME280;15675;52.870;-1.416;2023-08-12T11:37:47;100450.25;;;22.16;78.28
28448;BME280;15675;52.870;-1.416;2023-08-12T11:40:15;100436.44;;;21.92;77.52
28448;BME280;15675;52.870;-1.416;2023-08-12T11:42:42;100432.22;;;22.06;78.48
28448;BME280;15675;52.870;-1.416;2023-08-12T11:45:09;100439.03;;;22.47;78.54
28448;BME280;15675;52.870;-1.416;2023-08-12T11:47:35;100439.94;;;22.29;76.52
28448;BME280;15675;52.870;-1.416;2023-08-12T11:50:05;100439.06;;;22.11;76.67
28448;BME280;15675;52.870;-1.416;2023-08-12T11:52:31;100442.94;;;22.57;77.32
28448;BME280;15675;52.870;-1.416;2023-08-12T11:54:58;100440.00;;;22.46;77.05
28448;BME280;15675;52.870;-1.416;2023-08-12T11:57:24;100435.69;;;22.61;76.17
28448;BME280;15675;52.870;-1.416;2023-08-12T11:59:51;100433.88;;;22.27;76.85
28448;BME280;15675;52.870;-1.416;2023-08-12T12:02:16;100431.31;;;22.25;76.97
28448;BME280;15675;52.870;-1.416;2023-08-12T12:04:42;100418.53;;;22.16;77.68
28448;BME280;15675;52.870;-1.416;2023-08-12T12:07:19;100429.41;;;22.46;77.51
28448;BME280;15675;52.870;-1.416;2023-08-12T12:09:45;100410.19;;;22.43;75.96
28448;BME280;15675;52.870;-1.416;2023-08-12T12:12:10;100421.22;;;22.68;75.01
28448;BME280;15675;52.870;-1.416;2023-08-12T12:14:36;100430.03;;;22.34;75.39
28448;BME280;15675;52.870;-1.416;2023-08-12T12:17:07;100432.28;;;22.05;75.36
28448;BME280;15675;52.870;-1.416;2023-08-12T12:19:34;100424.56;;;22.54;77.10
28448;BME280;15675;52.870;-1.416;2023-08-12T12:22:02;100434.78;;;22.45;75.01
28448;BME280;15675;52.870;-1.416;2023-08-12T12:24:29;100417.50;;;22.72;76.36
28448;BME280;15675;52.870;-1.416;2023-08-12T12:26:56;100424.81;;;23.18;75.83
28448;BME280;15675;52.870;-1.416;2023-08-12T12:29:21;100434.28;;;22.71;76.02
28448;BME280;15675;52.870;-1.416;2023-08-12T12:31:47;100430.09;;;22.85;75.12
28448;BME280;15675;52.870;-1.416;2023-08-12T12:34:13;100440.34;;;22.38;76.46
28448;BME280;15675;52.870;-1.416;2023-08-12T12:36:39;100444.56;;;22.60;77.39
28448;BME280;15675;52.870;-1.416;2023-08-12T12:39:06;100441.56;;;22.14;79.27